Torreón, COA, Mexico
Current Conditions -  °F | °C
As of 4:40 PM on Thursday 23 Oct 2014 (Local Time) from MMTC Reporting Station
Broken Clouds Broken Clouds  
Wind Chill: 81°   Ceiling: 2500
Heat Index: 81°   Visibility: 8mi
Dew Point: 59°   Wind: 5mph
Humidity: 48%   Direction: 30°NNE
Pressure: 30.1"   Gusts: NA
Location:  25.54445°N, 103.4417°W
Report Text: MMTC 232140Z 03004KT 8SM BKN025TCU 27/15 A3010 RMK 8/200 HZY LWR SC ISOL CI CB VC
Loading
Personal Weather Stations






























Interactive Weather Map
Tropical Storm Tracking
New forecast layout! Learn more

10-Day Weather Forecast

Advertisements
Track Severe Weather on mobile